sensor_id;sensor_type;location;lat;lon;timestamp;temperature;humidity
6186;DHT22;3126;52.738;8.316;2022-07-18T07:26:51;20.50;53.00
6186;DHT22;3126;52.738;8.316;2022-07-18T08:47:08;21.70;56.10
6186;DHT22;3126;52.738;8.316;2022-07-18T09:07:30;28.90;34.60
6186;DHT22;3126;52.738;8.316;2022-07-18T09:12:31;30.20;30.90
6186;DHT22;3126;52.738;8.316;2022-07-18T09:17:34;30.20;30.40
6186;DHT22;3126;52.738;8.316;2022-07-18T09:22:36;30.20;31.90
6186;DHT22;3126;52.738;8.316;2022-07-18T09:32:41;30.60;30.90
6186;DHT22;3126;52.738;8.316;2022-07-18T09:53:12;30.70;30.80
6186;DHT22;3126;52.738;8.316;2022-07-18T09:58:16;31.20;28.20
6186;DHT22;3126;52.738;8.316;2022-07-18T10:03:18;31.60;27.70
6186;DHT22;3126;52.738;8.316;2022-07-18T10:08:21;31.90;26.80
6186;DHT22;3126;52.738;8.316;2022-07-18T10:13:23;32.00;24.90
6186;DHT22;3126;52.738;8.316;2022-07-18T10:18:26;32.00;26.40
6186;DHT22;3126;52.738;8.316;2022-07-18T10:23:45;32.10;27.00
6186;DHT22;3126;52.738;8.316;2022-07-18T10:39:14;32.60;25.80
6186;DHT22;3126;52.738;8.316;2022-07-18T10:44:32;32.90;26.60
6186;DHT22;3126;52.738;8.316;2022-07-18T11:00:36;33.10;24.50
6186;DHT22;3126;52.738;8.316;2022-07-18T11:16:17;33.00;26.00
6186;DHT22;3126;52.738;8.316;2022-07-18T11:26:26;33.00;25.90
6186;DHT22;3126;52.738;8.316;2022-07-18T11:31:28;33.00;26.50
6186;DHT22;3126;52.738;8.316;2022-07-18T11:36:31;33.00;27.10
6186;DHT22;3126;52.738;8.316;2022-07-18T11:41:32;33.00;26.70
6186;DHT22;3126;52.738;8.316;2022-07-18T11:46:33;33.00;27.00
6186;DHT22;3126;52.738;8.316;2022-07-18T11:51:36;33.10;25.50
6186;DHT22;3126;52.738;8.316;2022-07-18T11:56:49;33.20;26.10
6186;DHT22;3126;52.738;8.316;2022-07-18T12:01:50;33.10;26.90
6186;DHT22;3126;52.738;8.316;2022-07-18T12:07:23;33.00;25.60
6186;DHT22;3126;52.738;8.316;2022-07-18T12:12:25;33.10;26.30
6186;DHT22;3126;52.738;8.316;2022-07-18T12:17:26;33.20;24.40
6186;DHT22;3126;52.738;8.316;2022-07-18T12:22:27;33.10;26.80
6186;DHT22;3126;52.738;8.316;2022-07-18T12:37:41;32.50;25.00
6186;DHT22;3126;52.738;8.316;2022-07-18T12:42:42;32.30;24.80
6186;DHT22;3126;52.738;8.316;2022-07-18T12:47:43;32.20;25.50
6186;DHT22;3126;52.738;8.316;2022-07-18T12:52:43;32.30;26.60
6186;DHT22;3126;52.738;8.316;2022-07-18T12:57:44;32.50;25.00
6186;DHT22;3126;52.738;8.316;2022-07-18T13:02:46;32.60;24.70
6186;DHT22;3126;52.738;8.316;2022-07-18T13:07:46;32.80;25.00
6186;DHT22;3126;52.738;8.316;2022-07-18T13:12:48;32.70;25.10
6186;DHT22;3126;52.738;8.316;2022-07-18T13:17:49;32.70;25.50
6186;DHT22;3126;52.738;8.316;2022-07-18T13:22:49;32.80;24.80
6186;DHT22;3126;52.738;8.316;2022-07-18T13:27:50;32.70;24.30
6186;DHT22;3126;52.738;8.316;2022-07-18T13:32:51;32.80;26.00
6186;DHT22;3126;52.738;8.316;2022-07-18T13:37:52;33.10;26.50
6186;DHT22;3126;52.738;8.316;2022-07-18T13:42:52;33.30;26.20
6186;DHT22;3126;52.738;8.316;2022-07-18T13:47:53;33.50;24.20
6186;DHT22;3126;52.738;8.316;2022-07-18T13:52:55;33.40;25.80
6186;DHT22;3126;52.738;8.316;2022-07-18T13:57:55;33.40;25.10
6186;DHT22;3126;52.738;8.316;2022-07-18T14:02:56;33.40;25.40
6186;DHT22;3126;52.738;8.316;2022-07-18T14:07:57;33.40;25.50
6186;DHT22;3126;52.738;8.316;2022-07-18T14:12:58;33.10;24.80
6186;DHT22;3126;52.738;8.316;2022-07-18T14:17:58;32.90;27.20
6186;DHT22;3126;52.738;8.316;2022-07-18T14:22:59;33.20;28.30
6186;DHT22;3126;52.738;8.316;2022-07-18T14:28:01;33.40;25.70
6186;DHT22;3126;52.738;8.316;2022-07-18T14:33:03;33.30;26.20
6186;DHT22;3126;52.738;8.316;2022-07-18T14:38:04;33.30;24.70
6186;DHT22;3126;52.738;8.316;2022-07-18T14:43:04;33.20;25.60
6186;DHT22;3126;52.738;8.316;2022-07-18T14:48:05;33.10;25.50
6186;DHT22;3126;52.738;8.316;2022-07-18T14:53:06;33.20;26.20
6186;DHT22;3126;52.738;8.316;2022-07-18T14:58:06;33.10;25.70
6186;DHT22;3126;52.738;8.316;2022-07-18T15:03:07;33.00;25.40
6186;DHT22;3126;52.738;8.316;2022-07-18T15:08:08;32.90;25.60
6186;DHT22;3126;52.738;8.316;2022-07-18T15:13:08;32.90;26.30
6186;DHT22;3126;52.738;8.316;2022-07-18T15:18:09;32.90;26.00
6186;DHT22;3126;52.738;8.316;2022-07-18T15:23:10;32.90;26.90
6186;DHT22;3126;52.738;8.316;2022-07-18T15:28:10;32.90;25.50
6186;DHT22;3126;52.738;8.316;2022-07-18T15:33:11;32.90;26.50
6186;DHT22;3126;52.738;8.316;2022-07-18T15:38:11;32.80;25.70
6186;DHT22;3126;52.738;8.316;2022-07-18T15:43:12;32.70;26.70
6186;DHT22;3126;52.738;8.316;2022-07-18T15:48:13;32.60;26.00
6186;DHT22;3126;52.738;8.316;2022-07-18T15:53:13;32.50;25.60
6186;DHT22;3126;52.738;8.316;2022-07-18T15:58:14;32.50;25.80
6186;DHT22;3126;52.738;8.316;2022-07-18T16:03:14;32.40;25.80
6186;DHT22;3126;52.738;8.316;2022-07-18T16:08:15;32.30;26.10
6186;DHT22;3126;52.738;8.316;2022-07-18T16:13:16;32.20;25.80
6186;DHT22;3126;52.738;8.316;2022-07-18T16:18:17;32.20;26.50
6186;DHT22;3126;52.738;8.316;2022-07-18T16:23:17;32.10;27.00
6186;DHT22;3126;52.738;8.316;2022-07-18T16:28:18;32.10;26.70
6186;DHT22;3126;52.738;8.316;2022-07-18T16:33:19;31.90;26.50
6186;DHT22;3126;52.738;8.316;2022-07-18T16:38:19;31.70;26.70
6186;DHT22;3126;52.738;8.316;2022-07-18T16:43:20;31.40;28.20
6186;DHT22;3126;52.738;8.316;2022-07-18T16:48:21;31.30;28.20
6186;DHT22;3126;52.738;8.316;2022-07-18T16:53:22;31.30;28.30
6186;DHT22;3126;52.738;8.316;2022-07-18T16:58:22;31.50;28.80
6186;DHT22;3126;52.738;8.316;2022-07-18T17:03:25;31.40;28.40
6186;DHT22;3126;52.738;8.316;2022-07-18T17:08:27;31.30;27.90
6186;DHT22;3126;52.738;8.316;2022-07-18T17:13:28;31.20;28.30
6186;DHT22;3126;52.738;8.316;2022-07-18T17:18:29;31.10;28.00
6186;DHT22;3126;52.738;8.316;2022-07-18T17:23:31;31.00;28.10
6186;DHT22;3126;52.738;8.316;2022-07-18T17:28:33;31.10;28.30
6186;DHT22;3126;52.738;8.316;2022-07-18T17:33:34;31.00;28.40
6186;DHT22;3126;52.738;8.316;2022-07-18T17:38:35;30.90;28.60
6186;DHT22;3126;52.738;8.316;2022-07-18T17:43:37;31.00;29.20
6186;DHT22;3126;52.738;8.316;2022-07-18T17:48:40;31.00;29.00
6186;DHT22;3126;52.738;8.316;2022-07-18T17:53:41;31.00;28.50
6186;DHT22;3126;52.738;8.316;2022-07-18T17:58:41;30.90;28.40
6186;DHT22;3126;52.738;8.316;2022-07-18T18:03:43;30.80;30.30
6186;DHT22;3126;52.738;8.316;2022-07-18T18:08:44;30.70;31.80
6186;DHT22;3126;52.738;8.316;2022-07-18T18:13:44;30.60;32.00
6186;DHT22;3126;52.738;8.316;2022-07-18T18:18:45;30.50;31.80
6186;DHT22;3126;52.738;8.316;2022-07-18T18:23:45;30.40;32.40
6186;DHT22;3126;52.738;8.316;2022-07-18T18:28:46;30.10;32.60
6186;DHT22;3126;52.738;8.316;2022-07-18T22:40:13;29.90;33.40
6186;DHT22;3126;52.738;8.316;2022-07-18T22:45:14;19.70;64.30
